Terminal Aerodrome Forecast
Issued by NWS Blacksburg, VA

Current Version | Previous Version | Graphics & Text | Print | Product List | Glossary On
Versions: 1 2 3 4 5 6 7 8 9 10 11 12 13 14 15 16 17 18 19 20 21 22 23 24 25 26 27 28 29 30 31 32
000
FTUS41 KRNK 081720
TAFBLF
TAF
KBLF 081720Z 0818/0918 22010KT 4SM -SN SCT025 OVC035
      TEMPO 0818/0820 1SM -SHSN OVC025
     FM082100 25008KT 6SM -RASN SCT015 OVC025
      TEMPO 0822/0901 3SM -SHSN OVC015
     FM090100 28006KT 5SM -SHSN SCT003 OVC008
     FM090800 28012G22KT 2SM -SHSN OVC003=

USA.gov is the U.S. government's official web portal to all federal, state and local government web resources and services.